Time;durP1;ratioP1;P1;durP2;ratioP2;P2;SDS_P1;SDS_P2;PMS_P1;PMS_P2;Temp;Humidity;BMP_temperature;BMP_pressure;BME280_temperature;BME280_humidity;BME280_pressure;Samples;Min_cycle;Max_cycle;Signal;HPM_P1;HPM_P2
2022/10/27 00:01:07;;;;;;;33.40;17.20;;;;;;;9.94;70.66;99817.29;103091;1304;99220;-74
2022/10/27 00:03:39;;;;;;;32.20;17.00;;;;;;;9.93;70.78;99822.14;103165;1297;107449;-75
2022/10/27 00:06:10;;;;;;;32.00;17.70;;;;;;;9.91;70.75;99823.65;103157;1297;99242;-75
2022/10/27 00:08:38;;;;;;;31.40;17.50;;;;;;;9.90;70.82;99823.14;103131;1304;99242;-75
2022/10/27 00:11:09;;;;;;;32.10;18.00;;;;;;;9.89;70.88;99822.70;103103;1297;112582;-76
2022/10/27 00:13:40;;;;;;;32.00;17.80;;;;;;;9.89;70.92;99823.98;103144;1297;99336;-76
2022/10/27 00:16:16;;;;;;;32.30;17.20;;;;;;;9.87;70.94;99825.30;103064;1299;108482;-76
2022/10/27 00:18:47;;;;;;;36.20;18.50;;;;;;;9.86;70.93;99829.45;103114;1298;99218;-78
2022/10/27 00:21:20;;;;;;;32.60;18.00;;;;;;;9.83;71.01;99827.98;103168;1296;99256;-73
2022/10/27 00:23:51;;;;;;;29.50;16.30;;;;;;;9.81;70.95;99832.89;103120;1297;112528;-75
2022/10/27 00:26:22;;;;;;;35.10;18.40;;;;;;;9.79;71.06;99831.57;103104;1304;99340;-73
2022/10/27 00:28:50;;;;;;;31.70;17.70;;;;;;;9.78;71.08;99830.95;103047;1304;107418;-74
2022/10/27 00:31:22;;;;;;;33.70;17.40;;;;;;;9.78;71.12;99830.62;103068;1296;99896;-76
2022/10/27 00:33:50;;;;;;;30.20;17.10;;;;;;;9.76;71.08;99832.14;103043;1300;99247;-75
2022/10/27 00:36:24;;;;;;;36.40;19.20;;;;;;;9.74;71.06;99829.75;103089;1298;112451;-75
2022/10/27 00:38:59;;;;;;;32.10;18.00;;;;;;;9.72;71.11;99830.25;103149;1304;99307;-75
2022/10/27 00:41:36;;;;;;;35.20;17.50;;;;;;;9.70;71.06;99833.35;103072;1303;107570;-77
2022/10/27 00:44:36;;;;;;;31.20;18.30;;;;;;;9.68;71.28;99833.11;103138;1296;99248;-77
2022/10/27 00:47:16;;;;;;;32.90;17.40;;;;;;;9.67;71.36;99833.16;103166;1304;99313;-77
2022/10/27 00:49:50;;;;;;;30.30;16.70;;;;;;;9.67;71.46;99833.34;102963;1296;112342;-77
2022/10/27 00:52:54;;;;;;;34.00;18.20;;;;;;;9.67;71.46;99831.21;103114;1297;99236;-76
2022/10/27 00:55:34;;;;;;;30.20;16.90;;;;;;;9.66;71.49;99834.98;103046;1300;107515;-78
2022/10/27 00:58:14;;;;;;;30.70;16.40;;;;;;;9.66;71.57;99840.30;103127;1303;100414;-76
2022/10/27 01:00:42;;;;;;;31.50;16.00;;;;;;;9.65;71.56;99842.47;103114;1304;99391;-76
2022/10/27 01:03:21;;;;;;;31.30;16.10;;;;;;;9.64;71.52;99846.80;103112;1298;112450;-77
2022/10/27 01:05:53;;;;;;;28.80;15.70;;;;;;;9.63;71.55;99845.44;103146;1304;99344;-80
2022/10/27 01:08:25;;;;;;;30.40;17.40;;;;;;;9.61;71.51;99852.06;103102;1296;105889;-76
2022/10/27 01:10:53;;;;;;;32.50;17.60;;;;;;;9.59;71.58;99852.19;103133;1303;98426;-75
2022/10/27 01:13:25;;;;;;;31.90;17.60;;;;;;;9.58;71.63;99851.00;103143;1296;99199;-78
2022/10/27 01:16:25;;;;;;;31.50;16.90;;;;;;;9.58;71.73;99852.83;103099;1297;112436;-77
2022/10/27 01:19:11;;;;;;;31.10;17.30;;;;;;;9.57;71.88;99853.77;103048;1297;96563;-77
2022/10/27 01:22:00;;;;;;;32.50;16.90;;;;;;;9.56;71.88;99851.64;102981;1297;107442;-77
2022/10/27 01:24:50;;;;;;;32.00;16.40;;;;;;;9.58;71.85;99846.44;103003;1304;96921;-77
2022/10/27 01:27:32;;;;;;;30.30;16.90;;;;;;;9.57;71.83;99850.91;103064;1297;99348;-77
2022/10/27 01:30:22;;;;;;;30.10;16.50;;;;;;;9.58;72.03;99853.73;103017;1296;112419;-77
2022/10/27 01:33:14;;;;;;;30.70;16.50;;;;;;;9.58;71.87;99848.16;103049;1298;99272;-77
2022/10/27 01:35:52;;;;;;;31.60;16.40;;;;;;;9.58;71.92;99846.45;102990;1298;106645;-76
2022/10/27 01:38:41;;;;;;;29.30;15.20;;;;;;;9.59;72.08;99840.66;103013;1303;99850;-76
2022/10/27 01:41:26;;;;;;;33.10;17.10;;;;;;;9.60;72.07;99836.18;103035;1299;100023;-75
2022/10/27 01:44:01;;;;;;;33.40;15.90;;;;;;;9.60;72.04;99833.00;103100;1298;112528;-76
2022/10/27 01:46:29;;;;;;;31.30;16.20;;;;;;;9.60;72.13;99834.29;103036;1296;97969;-75
2022/10/27 01:49:02;;;;;;;31.90;16.70;;;;;;;9.61;72.12;99834.38;103021;1290;107156;-76
2022/10/27 01:51:30;;;;;;;30.20;16.40;;;;;;;9.61;72.25;99835.23;103067;1304;99220;-76
2022/10/27 01:54:02;;;;;;;28.10;15.00;;;;;;;9.62;72.26;99839.63;103031;1298;99218;-77
2022/10/27 01:56:52;;;;;;;33.30;17.60;;;;;;;9.62;72.25;99838.58;103074;1298;112491;-76
2022/10/27 01:59:56;;;;;;;31.30;16.20;;;;;;;9.60;72.19;99840.81;103138;1296;99220;-76
2022/10/27 02:02:36;;;;;;;31.00;17.00;;;;;;;9.58;72.23;99842.55;103043;1300;107184;-76
2022/10/27 02:05:21;;;;;;;30.80;17.30;;;;;;;9.56;72.32;99840.69;103053;1305;97225;-77
2022/10/27 02:08:25;;;;;;;30.50;16.40;;;;;;;9.55;72.26;99840.21;103062;1297;96600;-77
2022/10/27 02:11:07;;;;;;;32.30;18.40;;;;;;;9.51;72.06;99835.29;103056;1303;112454;-76
2022/10/27 02:13:42;;;;;;;32.60;16.60;;;;;;;9.46;72.14;99833.63;103073;1296;99360;-77
2022/10/27 02:16:29;;;;;;;33.80;17.80;;;;;;;9.44;72.40;99833.93;102950;1300;107495;-76
2022/10/27 02:19:04;;;;;;;35.70;17.60;;;;;;;9.42;72.41;99838.08;103072;1304;100357;-75
2022/10/27 02:21:36;;;;;;;30.60;16.30;;;;;;;9.42;72.52;99839.52;103061;1303;99357;-74
2022/10/27 02:24:07;;;;;;;33.10;18.20;;;;;;;9.41;72.53;99841.67;103087;1302;112137;-75
2022/10/27 02:27:01;;;;;;;29.50;16.40;;;;;;;9.41;72.63;99843.13;103086;1296;99411;-75
2022/10/27 02:29:44;;;;;;;30.60;16.50;;;;;;;9.41;72.78;99853.55;103099;1304;107487;-75
2022/10/27 02:32:23;;;;;;;28.90;15.90;;;;;;;9.41;72.70;99851.77;103121;1303;99196;-76
2022/10/27 02:34:51;;;;;;;32.30;17.00;;;;;;;9.42;72.77;99852.99;103131;1304;99106;-75
2022/10/27 02:37:26;;;;;;;32.60;16.10;;;;;;;9.42;72.84;99854.91;103120;1297;112562;-75
2022/10/27 02:39:54;;;;;;;30.50;15.50;;;;;;;9.41;72.82;99855.51;103104;1296;99935;-76
2022/10/27 02:42:22;;;;;;;30.80;16.90;;;;;;;9.38;72.63;99854.23;103073;1304;107112;-75
2022/10/27 02:44:53;;;;;;;29.90;16.70;;;;;;;9.31;72.38;99854.48;103075;1297;99237;-76
2022/10/27 02:47:20;;;;;;;29.60;16.30;;;;;;;9.20;72.44;99857.02;103052;1304;99474;-76
2022/10/27 02:49:51;;;;;;;29.10;15.80;;;;;;;9.09;72.46;99859.35;103100;1298;112479;-76
2022/10/27 02:52:19;;;;;;;33.80;16.80;;;;;;;9.04;72.60;99861.39;103102;1297;99127;-75
2022/10/27 02:54:47;;;;;;;31.30;16.50;;;;;;;8.96;72.62;99857.20;103074;1300;107695;-76
2022/10/27 02:57:17;;;;;;;33.40;16.40;;;;;;;8.84;72.58;99862.11;103072;1296;99362;-76
2022/10/27 02:59:48;;;;;;;33.60;17.90;;;;;;;8.75;72.62;99860.41;103102;1297;99889;-77
2022/10/27 03:02:21;;;;;;;33.60;16.50;;;;;;;8.73;72.91;99863.75;103075;1302;112566;-76
2022/10/27 03:04:50;;;;;;;30.60;16.40;;;;;;;8.74;72.99;99865.77;103072;1307;99247;-78
2022/10/27 03:07:18;;;;;;;33.80;17.30;;;;;;;8.76;73.05;99865.66;103082;1298;107463;-78
2022/10/27 03:09:49;;;;;;;31.20;16.50;;;;;;;8.78;73.20;99866.09;103028;1303;99355;-76
2022/10/27 03:12:16;;;;;;;30.60;16.80;;;;;;;8.79;73.17;99866.38;103147;1297;99348;-76
2022/10/27 03:14:44;;;;;;;33.20;17.50;;;;;;;8.80;73.12;99866.54;103135;1287;112497;-76
2022/10/27 03:17:12;;;;;;;34.70;17.10;;;;;;;8.80;73.16;99875.57;103099;1304;96664;-75
2022/10/27 03:19:39;;;;;;;33.60;16.90;;;;;;;8.80;73.26;99880.16;103134;1296;106139;-76
2022/10/27 03:22:07;;;;;;;32.10;18.10;;;;;;;8.79;73.35;99881.60;103123;1301;99243;-76
2022/10/27 03:24:35;;;;;;;32.60;17.20;;;;;;;8.78;73.25;99884.14;103112;1303;97892;-76
2022/10/27 03:27:02;;;;;;;29.00;15.60;;;;;;;8.75;73.10;99885.88;103087;1305;112399;-74
2022/10/27 03:29:30;;;;;;;31.50;15.80;;;;;;;8.72;73.31;99890.67;103126;1297;99241;-75
2022/10/27 03:31:58;;;;;;;34.00;17.20;;;;;;;8.68;73.25;99893.15;103128;1298;107146;-75
2022/10/27 03:34:25;;;;;;;31.20;16.80;;;;;;;8.66;73.19;99894.31;103107;1304;99106;-76
2022/10/27 03:36:53;;;;;;;31.20;16.00;;;;;;;8.66;73.30;99895.40;103115;1304;99249;-76
2022/10/27 03:39:21;;;;;;;34.10;16.70;;;;;;;8.67;73.44;99898.02;103112;1296;112434;-76
2022/10/27 03:41:51;;;;;;;31.90;17.10;;;;;;;8.67;73.38;99902.40;103179;1297;99246;-76
2022/10/27 03:44:19;;;;;;;33.40;17.00;;;;;;;8.69;73.48;99902.67;103188;1303;107479;-71
2022/10/27 03:46:47;;;;;;;34.80;17.70;;;;;;;8.69;73.37;99900.37;103194;1296;99299;-75
2022/10/27 03:49:14;;;;;;;32.10;16.80;;;;;;;8.70;73.38;99901.20;103186;1287;99543;-76
2022/10/27 03:51:42;;;;;;;33.60;16.90;;;;;;;8.71;73.64;99901.83;103215;1298;111296;-77
2022/10/27 03:54:10;;;;;;;30.80;17.50;;;;;;;8.73;73.67;99906.48;103132;1301;99081;-77
2022/10/27 03:56:38;;;;;;;32.00;15.60;;;;;;;8.76;73.61;99909.20;103086;1304;105757;-77
2022/10/27 03:59:05;;;;;;;32.00;16.50;;;;;;;8.78;73.80;99908.36;103109;1303;99360;-78
2022/10/27 04:01:36;;;;;;;30.70;16.50;;;;;;;8.82;73.87;99910.67;103137;1296;99638;-77
2022/10/27 04:04:04;;;;;;;29.00;16.10;;;;;;;8.86;73.89;99912.23;103162;1298;112519;-77
2022/10/27 04:06:35;;;;;;;30.70;16.80;;;;;;;8.90;73.94;99910.61;103089;1303;96542;-75
2022/10/27 04:09:03;;;;;;;34.80;17.50;;;;;;;8.93;74.03;99913.95;103147;1303;107509;-77
2022/10/27 04:11:35;;;;;;;33.00;17.30;;;;;;;9.00;74.08;99912.21;103146;1297;99078;-77
2022/10/27 04:14:03;;;;;;;30.90;17.00;;;;;;;9.05;74.11;99913.14;103153;1296;99305;-76
2022/10/27 04:16:35;;;;;;;32.40;16.10;;;;;;;9.12;74.17;99916.34;103144;1296;112828;-78
2022/10/27 04:19:03;;;;;;;29.80;16.00;;;;;;;9.18;74.17;99916.52;103186;1303;99251;-77
2022/10/27 04:21:33;;;;;;;31.80;16.20;;;;;;;9.24;74.25;99915.34;103003;1299;107298;-78
2022/10/27 04:24:00;;;;;;;29.20;15.90;;;;;;;9.30;74.22;99914.34;103171;1303;99333;-76
2022/10/27 04:26:28;;;;;;;31.20;16.00;;;;;;;9.35;74.26;99916.89;103160;1297;96814;-76
2022/10/27 04:28:56;;;;;;;31.20;16.70;;;;;;;9.39;74.18;99917.38;103074;1303;112075;-76
2022/10/27 04:31:23;;;;;;;34.10;17.70;;;;;;;9.42;74.22;99919.53;103201;1304;99180;-76
2022/10/27 04:33:54;;;;;;;30.60;16.70;;;;;;;9.46;74.24;99925.14;103156;1304;106691;-77
2022/10/27 04:36:22;;;;;;;29.70;16.50;;;;;;;9.50;74.36;99928.48;103041;1308;99225;-77
2022/10/27 04:38:53;;;;;;;31.70;16.80;;;;;;;9.53;74.21;99926.55;103244;1305;99139;-77
2022/10/27 04:41:20;;;;;;;33.60;16.90;;;;;;;9.54;74.22;99925.45;103191;1302;112364;-77
2022/10/27 04:43:51;;;;;;;30.30;16.60;;;;;;;9.54;74.29;99925.80;103136;1303;122546;-76
2022/10/27 04:46:19;;;;;;;32.50;16.90;;;;;;;9.53;74.28;99927.41;103127;1304;107583;-76
2022/10/27 04:48:49;;;;;;;31.60;16.40;;;;;;;9.53;74.34;99928.66;103065;1302;99394;-77
2022/10/27 04:51:17;;;;;;;30.80;16.10;;;;;;;9.52;74.29;99928.73;103185;1304;99215;-76
2022/10/27 04:53:52;;;;;;;29.40;16.70;;;;;;;9.51;74.28;99928.95;103126;1303;112576;-77
2022/10/27 04:56:23;;;;;;;32.50;16.90;;;;;;;9.50;74.35;99928.33;103111;1303;97966;-78
2022/10/27 04:58:51;;;;;;;31.20;15.80;;;;;;;9.48;74.28;99926.65;103145;1297;107953;-76
2022/10/27 05:01:18;;;;;;;28.70;15.70;;;;;;;9.44;74.12;99926.48;102985;1303;99307;-74
2022/10/27 05:03:50;;;;;;;28.50;15.90;;;;;;;9.38;74.15;99923.96;102858;1300;99201;-76
2022/10/27 05:06:18;;;;;;;32.70;17.10;;;;;;;9.34;74.03;99922.61;102941;1306;112251;-77
2022/10/27 05:08:45;;;;;;;29.10;16.40;;;;;;;9.28;74.08;99922.05;103108;1303;99335;-77
2022/10/27 05:11:13;;;;;;;34.50;18.20;;;;;;;9.21;74.35;99922.23;103081;1296;106585;-77
2022/10/27 05:13:50;;;;;;;28.90;15.40;;;;;;;9.15;74.32;99932.45;103019;1306;99367;-75
2022/10/27 05:16:18;;;;;;;29.60;15.90;;;;;;;9.10;74.41;99936.98;103028;1297;99340;-76
2022/10/27 05:18:46;;;;;;;30.00;16.30;;;;;;;9.06;74.48;99938.93;103019;1298;112157;-76
2022/10/27 05:21:13;;;;;;;33.60;18.50;;;;;;;9.03;74.41;99943.00;103076;1296;99247;-77
2022/10/27 05:23:42;;;;;;;30.60;16.20;;;;;;;8.98;74.42;99947.31;103081;1303;107409;-76
2022/10/27 05:26:16;;;;;;;29.90;16.20;;;;;;;8.96;74.63;99948.48;103048;1304;99268;-76
2022/10/27 05:28:44;;;;;;;31.40;15.90;;;;;;;8.96;74.73;99951.50;102929;1300;96623;-76
2022/10/27 05:31:11;;;;;;;29.50;16.00;;;;;;;8.98;74.74;99953.02;103095;1303;112490;-77
2022/10/27 05:33:41;;;;;;;31.70;17.10;;;;;;;8.99;74.82;99956.31;103107;1296;99220;-77
2022/10/27 05:36:09;;;;;;;33.00;17.50;;;;;;;9.01;74.60;99952.13;103029;1306;107157;-76
2022/10/27 05:38:37;;;;;;;36.60;16.50;;;;;;;9.02;74.89;99954.40;103014;1296;98316;-76
2022/10/27 05:41:05;;;;;;;32.80;16.70;;;;;;;9.04;74.94;99958.87;103103;1296;99349;-75
2022/10/27 05:43:32;;;;;;;35.60;17.00;;;;;;;9.07;74.87;99958.71;103124;1304;112500;-77
2022/10/27 05:46:10;;;;;;;31.80;15.80;;;;;;;9.10;74.99;99963.86;103115;1304;99294;-76
2022/10/27 05:48:38;;;;;;;31.40;16.90;;;;;;;9.13;75.07;99969.55;103052;1302;107597;-77
2022/10/27 05:51:09;;;;;;;29.20;15.00;;;;;;;9.17;75.07;99970.41;103039;1304;97961;-76
2022/10/27 05:53:37;;;;;;;31.10;15.50;;;;;;;9.20;75.06;99972.88;103007;1302;99343;-76
2022/10/27 05:56:05;;;;;;;30.70;16.30;;;;;;;9.24;75.17;99976.04;103018;1297;112460;-76
2022/10/27 05:58:32;;;;;;;29.20;15.40;;;;;;;9.28;75.05;99974.45;103020;1297;99055;-76
2022/10/27 06:01:00;;;;;;;28.50;15.10;;;;;;;9.32;75.16;99972.63;103012;1298;107149;-76
2022/10/27 06:03:31;;;;;;;29.90;15.30;;;;;;;9.36;75.13;99978.08;103083;1304;99241;-76
2022/10/27 06:06:03;;;;;;;29.50;15.40;;;;;;;9.40;75.22;99976.10;103160;1297;97110;-76
2022/10/27 06:08:31;;;;;;;31.00;16.40;;;;;;;9.45;75.25;99981.88;103098;1297;112508;-76
2022/10/27 06:11:01;;;;;;;29.10;14.60;;;;;;;9.48;75.22;99987.00;103050;1289;99263;-76
2022/10/27 06:13:29;;;;;;;28.60;15.20;;;;;;;9.53;75.33;99988.89;102966;1304;108783;-76
2022/10/27 06:15:57;;;;;;;30.40;14.30;;;;;;;9.57;75.27;99989.54;103037;1303;100776;-74
2022/10/27 06:18:27;;;;;;;27.70;15.20;;;;;;;9.62;75.25;99989.66;103009;1304;99340;-78
2022/10/27 06:20:55;;;;;;;28.00;15.00;;;;;;;9.66;75.31;99986.41;102991;1297;112842;-76
2022/10/27 06:23:26;;;;;;;29.80;15.40;;;;;;;9.71;75.29;99989.55;103044;1302;99321;-76
2022/10/27 06:25:55;;;;;;;29.40;15.00;;;;;;;9.75;75.44;99991.59;103011;1298;107489;-78
2022/10/27 06:28:26;;;;;;;27.50;14.20;;;;;;;9.80;75.44;99996.46;103089;1295;99237;-76
2022/10/27 06:30:54;;;;;;;29.50;15.10;;;;;;;9.84;75.41;100000.13;103202;1296;96500;-77
2022/10/27 06:33:21;;;;;;;28.00;14.80;;;;;;;9.89;75.41;100000.21;103117;1304;112408;-77
2022/10/27 06:35:49;;;;;;;29.20;14.80;;;;;;;9.94;75.56;99999.08;103104;1303;99265;-78
2022/10/27 06:38:18;;;;;;;29.10;15.10;;;;;;;9.99;75.48;100006.55;103059;1298;107372;-77
2022/10/27 06:40:45;;;;;;;31.40;14.60;;;;;;;10.05;75.55;100008.03;103192;1303;99319;-78
2022/10/27 06:43:17;;;;;;;27.50;14.80;;;;;;;10.10;75.62;100005.48;103176;1304;97915;-77
2022/10/27 06:45:49;;;;;;;27.10;13.60;;;;;;;10.15;75.55;100013.14;103058;1304;112587;-79
2022/10/27 06:48:16;;;;;;;30.30;15.10;;;;;;;10.21;75.61;100015.82;103096;1301;99299;-78
2022/10/27 06:50:44;;;;;;;27.70;14.50;;;;;;;10.26;75.66;100017.30;103025;1296;107187;-76
2022/10/27 06:53:12;;;;;;;28.10;14.40;;;;;;;10.33;75.66;100026.89;103053;1305;99387;-77
2022/10/27 06:55:43;;;;;;;28.70;14.10;;;;;;;10.38;75.67;100026.07;103050;1304;99374;-78
2022/10/27 06:58:12;;;;;;;26.60;14.50;;;;;;;10.43;75.74;100029.69;103038;1303;111443;-77
2022/10/27 07:00:43;;;;;;;23.80;13.40;;;;;;;10.50;75.69;100032.52;103050;1297;99887;-76
2022/10/27 07:03:15;;;;;;;26.80;14.40;;;;;;;10.56;75.73;100037.67;103054;1303;107451;-77
2022/10/27 07:05:42;;;;;;;29.70;13.80;;;;;;;10.62;75.78;100043.01;103119;1303;98748;-76
2022/10/27 07:08:10;;;;;;;25.20;13.50;;;;;;;10.68;75.70;100043.39;103085;1303;96654;-77
2022/10/27 07:10:38;;;;;;;25.60;13.90;;;;;;;10.73;75.74;100037.95;103288;1304;112060;-76
2022/10/27 07:13:06;;;;;;;24.70;13.90;;;;;;;10.79;75.76;100042.40;103100;1304;100823;-77
2022/10/27 07:15:35;;;;;;;26.90;13.00;;;;;;;10.86;75.81;100044.48;103130;1304;107349;-77
2022/10/27 07:18:09;;;;;;;26.30;13.20;;;;;;;10.93;75.78;100046.39;103064;1308;99282;-77
2022/10/27 07:20:39;;;;;;;26.00;13.00;;;;;;;10.99;75.87;100050.82;103057;1303;99342;-74
2022/10/27 07:23:12;;;;;;;25.30;12.50;;;;;;;11.06;75.88;100050.59;104809;1302;113260;-77
2022/10/27 07:25:40;;;;;;;25.30;12.80;;;;;;;11.13;75.78;100054.98;104161;1296;97705;-75
2022/10/27 07:28:08;;;;;;;27.20;12.30;;;;;;;11.22;75.79;100060.49;103797;1302;107559;-76
2022/10/27 07:30:39;;;;;;;25.10;12.00;;;;;;;11.30;75.90;100061.77;103033;1303;99327;-77
2022/10/27 07:33:07;;;;;;;25.60;12.10;;;;;;;11.39;75.84;100064.45;102865;1307;99413;-77
2022/10/27 07:35:35;;;;;;;23.30;12.00;;;;;;;11.46;75.81;100064.55;103108;1297;112585;-78
2022/10/27 07:38:06;;;;;;;28.30;12.70;;;;;;;11.53;75.89;100065.71;103163;1303;99324;-77
2022/10/27 07:40:34;;;;;;;22.20;10.50;;;;;;;11.61;75.88;100071.31;103057;1303;107418;-77
2022/10/27 07:43:03;;;;;;;23.30;10.90;;;;;;;11.68;75.94;100076.02;103076;1303;99265;-78
2022/10/27 07:45:43;;;;;;;23.10;11.60;;;;;;;11.75;75.88;100078.61;103069;1306;99235;-77
2022/10/27 07:48:15;;;;;;;23.70;11.80;;;;;;;11.83;76.01;100078.45;102876;1306;112512;-76
2022/10/27 07:50:47;;;;;;;22.30;11.50;;;;;;;11.90;75.94;100082.48;103043;1296;99324;-76
2022/10/27 07:53:20;;;;;;;24.70;11.60;;;;;;;11.97;75.86;100080.82;103009;1305;107514;-74
2022/10/27 07:55:48;;;;;;;24.20;12.10;;;;;;;12.03;75.88;100081.86;103049;1303;99286;-76
2022/10/27 07:58:18;;;;;;;22.30;10.30;;;;;;;12.10;75.82;100080.23;103052;1302;99236;-76
2022/10/27 08:00:50;;;;;;;27.50;13.10;;;;;;;12.17;75.97;100078.17;103106;1296;112449;-78
2022/10/27 08:03:24;;;;;;;23.10;11.00;;;;;;;12.25;75.99;100083.40;103118;1303;99368;-78
2022/10/27 08:06:01;;;;;;;23.20;10.40;;;;;;;12.32;76.04;100083.45;103112;1298;107457;-77
2022/10/27 08:08:33;;;;;;;23.80;10.60;;;;;;;12.40;75.99;100084.91;103107;1306;97949;-76
2022/10/27 08:11:01;;;;;;;22.40;10.90;;;;;;;12.47;75.94;100085.90;103109;1299;97648;-78
2022/10/27 08:13:28;;;;;;;21.50;10.60;;;;;;;12.55;76.02;100086.47;103103;1298;112994;-77
2022/10/27 08:15:59;;;;;;;21.20;10.00;;;;;;;12.63;76.00;100087.72;102948;1306;99234;-76
2022/10/27 08:18:27;;;;;;;23.20;10.60;;;;;;;12.72;76.07;100086.79;103137;1303;107540;-76
2022/10/27 08:20:59;;;;;;;22.10;10.30;;;;;;;12.79;76.10;100093.44;103131;1303;99951;-78
2022/10/27 08:23:26;;;;;;;21.40;9.50;;;;;;;12.89;76.03;100090.34;103112;1298;99383;-76
2022/10/27 08:25:58;;;;;;;22.90;9.80;;;;;;;12.96;75.96;100091.77;103149;1296;112555;-77
2022/10/27 08:28:29;;;;;;;20.70;8.80;;;;;;;13.06;76.03;100095.06;103085;1310;99217;-75
2022/10/27 08:30:58;;;;;;;19.60;8.50;;;;;;;13.19;76.06;100094.55;103070;1302;107314;-76
2022/10/27 08:33:29;;;;;;;24.80;10.20;;;;;;;13.36;76.04;100096.09;103101;1305;97515;-77
2022/10/27 08:36:02;;;;;;;21.20;8.50;;;;;;;13.60;76.06;100100.93;103179;1298;96551;-75
2022/10/27 08:38:31;;;;;;;;;;;;;;;13.88;76.01;100102.53;103179;1298;112257;-77
2022/10/27 08:41:20;;;;;;;21.90;8.60;;;;;;;14.20;76.18;100105.16;103174;1303;99325;-77
2022/10/27 08:44:13;;;;;;;18.50;7.90;;;;;;;14.60;76.01;100104.40;103200;1296;107145;-77
2022/10/27 08:46:57;;;;;;;18.10;7.90;;;;;;;14.99;75.88;100096.58;103094;1298;99249;-76
2022/10/27 08:49:37;;;;;;;16.20;7.40;;;;;;;15.43;76.10;100096.19;103135;1304;96752;-77
2022/10/27 08:52:22;;;;;;;17.90;7.60;;;;;;;15.85;75.86;100099.56;103179;1303;112853;-77
2022/10/27 08:55:04;;;;;;;17.40;7.70;;;;;;;16.22;75.72;100098.79;103116;1306;99185;-75
2022/10/27 08:57:32;;;;;;;16.60;7.70;;;;;;;16.63;75.71;100098.57;103102;1302;107571;-76
2022/10/27 09:00:12;;;;;;;17.00;7.20;;;;;;;17.13;75.72;100099.55;103085;1299;97668;-77
2022/10/27 09:03:33;;;;;;;17.10;7.70;;;;;;;17.61;75.43;100095.12;103137;1302;96837;-75
2022/10/27 09:06:15;;;;;;;15.60;6.80;;;;;;;18.24;75.72;100087.95;103129;1304;112510;-74
2022/10/27 09:09:13;;;;;;;15.20;6.70;;;;;;;18.76;75.42;100083.50;103132;1303;99328;-76
2022/10/27 09:12:01;;;;;;;20.40;7.10;;;;;;;19.24;74.66;100076.98;103213;1296;107694;-76
2022/10/27 09:14:55;;;;;;;15.40;6.50;;;;;;;19.79;74.47;100081.37;103126;1304;99259;-75
2022/10/27 09:17:57;;;;;;;13.10;5.90;;;;;;;20.33;74.07;100083.81;103092;1304;99217;-75
2022/10/27 09:20:40;;;;;;;17.50;6.60;;;;;;;20.85;73.78;100087.19;103053;1304;112503;-75
2022/10/27 09:23:21;;;;;;;;;;;;;;;21.16;73.31;100091.20;103060;1298;96594;-77
2022/10/27 09:25:56;;;;;;;13.80;6.20;;;;;;;21.19;72.96;100093.76;102954;1299;107617;-77
2022/10/27 09:28:30;;;;;;;12.30;5.60;;;;;;;21.10;73.03;100092.30;103154;1301;99334;-72
2022/10/27 09:31:03;;;;;;;12.50;5.90;;;;;;;21.08;73.13;100095.23;103178;1304;99228;-75
2022/10/27 09:33:37;;;;;;;12.80;6.00;;;;;;;20.98;73.12;100102.88;103142;1302;112955;-76
2022/10/27 09:36:15;;;;;;;;;;;;;;;20.80;72.76;100103.38;103146;1303;97975;-76
2022/10/27 09:38:43;;;;;;;15.40;5.80;;;;;;;20.67;72.60;100100.10;103057;1298;107460;-73
2022/10/27 09:41:14;;;;;;;14.30;6.10;;;;;;;20.67;72.84;100100.80;103115;1303;99245;-75
2022/10/27 09:43:42;;;;;;;11.90;5.40;;;;;;;20.67;72.44;100095.41;103114;1304;99837;-76
2022/10/27 09:46:28;;;;;;;11.90;5.50;;;;;;;20.52;72.27;100096.38;103120;1302;112598;-74
2022/10/27 09:49:09;;;;;;;16.20;5.70;;;;;;;20.38;72.38;100097.93;102993;1307;99037;-77
2022/10/27 09:52:12;;;;;;;14.20;5.70;;;;;;;20.35;71.94;100094.98;103070;1305;107116;-75
2022/10/27 09:54:58;;;;;;;12.10;5.30;;;;;;;20.29;71.76;100091.77;103161;1296;99267;-75
2022/10/27 09:57:31;;;;;;;17.40;5.60;;;;;;;20.19;71.39;100093.58;103099;1303;99364;-76
2022/10/27 10:00:29;;;;;;;14.80;5.70;;;;;;;20.07;71.33;100092.65;103102;1303;112696;-76
2022/10/27 10:03:21;;;;;;;11.30;4.90;;;;;;;19.81;70.64;100091.64;103141;1302;99280;-77
2022/10/27 10:06:03;;;;;;;11.70;4.50;;;;;;;19.67;70.76;100084.48;102999;1305;107454;-75
2022/10/27 10:08:35;;;;;;;15.30;5.30;;;;;;;19.62;70.75;100086.92;103113;1308;99208;-75
2022/10/27 10:11:23;;;;;;;11.30;5.10;;;;;;;19.58;70.35;100086.75;103108;1305;96683;-75
2022/10/27 10:13:58;;;;;;;13.80;5.10;;;;;;;19.53;70.45;100085.10;103011;1306;112174;-76
2022/10/27 10:16:32;;;;;;;12.20;5.20;;;;;;;19.53;70.20;100085.77;103139;1299;99390;-75
2022/10/27 10:19:16;;;;;;;10.70;4.50;;;;;;;19.52;70.21;100082.45;103143;1296;107235;-76
2022/10/27 10:21:53;;;;;;;11.60;4.30;;;;;;;19.52;70.01;100082.14;103117;1306;99346;-77
2022/10/27 10:24:33;;;;;;;10.00;4.40;;;;;;;19.46;69.51;100080.68;102953;1305;99326;-76
2022/10/27 10:27:06;;;;;;;11.30;4.40;;;;;;;19.42;69.51;100081.11;103131;1299;112519;-76
2022/10/27 10:29:50;;;;;;;10.00;4.70;;;;;;;19.41;69.54;100073.83;103144;1304;96658;-76
2022/10/27 10:32:26;;;;;;;12.30;5.50;;;;;;;19.36;69.58;100077.11;103154;1299;107430;-78
2022/10/27 10:34:55;;;;;;;11.70;4.90;;;;;;;19.47;69.76;100076.27;103077;1296;99328;-76
2022/10/27 10:37:46;;;;;;;10.90;4.50;;;;;;;19.63;69.60;100074.41;103026;1296;99232;-76
2022/10/27 10:40:24;;;;;;;12.30;5.10;;;;;;;19.78;69.37;100075.88;103043;1303;112424;-75
2022/10/27 10:43:15;;;;;;;11.10;4.30;;;;;;;19.93;69.10;100076.11;103055;1297;99218;-80
2022/10/27 10:45:51;;;;;;;10.00;4.60;;;;;;;20.01;68.85;100075.52;103044;1297;107449;-76
2022/10/27 10:48:33;;;;;;;9.30;4.40;;;;;;;20.01;68.50;100074.46;103062;1304;99120;-77
2022/10/27 10:51:05;;;;;;;12.60;4.90;;;;;;;19.93;68.19;100071.74;103069;1307;99356;-76
2022/10/27 10:53:49;;;;;;;9.20;4.60;;;;;;;19.86;67.95;100071.58;103143;1300;112174;-76
2022/10/27 10:56:29;;;;;;;12.30;4.70;;;;;;;19.79;67.22;100074.16;103155;1296;96467;-76
2022/10/27 10:59:09;;;;;;;9.80;4.70;;;;;;;19.71;67.58;100072.81;103182;1281;108020;-77
2022/10/27 11:02:12;;;;;;;12.80;4.60;;;;;;;19.69;67.71;100076.20;103110;1304;98427;-76
2022/10/27 11:04:46;;;;;;;12.60;5.00;;;;;;;19.78;68.00;100080.34;102956;1306;96566;-75
2022/10/27 11:07:31;;;;;;;9.90;4.70;;;;;;;19.90;68.08;100079.27;103036;1303;112513;-74
2022/10/27 11:10:16;;;;;;;18.10;5.00;;;;;;;20.03;67.50;100079.86;103079;1303;96586;-74
2022/10/27 11:12:49;;;;;;;8.50;4.10;;;;;;;20.15;67.74;100080.33;103024;1304;107530;-76
2022/10/27 11:15:29;;;;;;;9.30;4.40;;;;;;;20.26;67.61;100077.52;102979;1303;99352;-77
2022/10/27 11:18:15;;;;;;;13.30;5.20;;;;;;;20.32;67.40;100070.06;103102;1304;96666;-75
2022/10/27 11:20:51;;;;;;;12.80;4.80;;;;;;;20.34;67.31;100067.83;103091;1297;112483;-75
2022/10/27 11:23:28;;;;;;;10.50;4.20;;;;;;;20.35;66.83;100068.63;103168;1302;99294;-77
2022/10/27 11:26:01;;;;;;;10.60;4.20;;;;;;;20.38;66.89;100071.25;103101;1299;107144;-77
2022/10/27 11:29:07;;;;;;;12.30;4.30;;;;;;;20.41;66.44;100070.29;103097;1312;99188;-76
2022/10/27 11:32:14;;;;;;;10.50;4.10;;;;;;;20.40;66.13;100070.48;103182;1300;99312;-75
2022/10/27 11:34:45;;;;;;;8.40;3.70;;;;;;;20.46;66.00;100070.06;103089;1305;112382;-74
2022/10/27 11:37:46;;;;;;;9.00;3.80;;;;;;;20.45;66.09;100071.44;103129;1305;100057;-75
2022/10/27 11:40:32;;;;;;;8.70;3.90;;;;;;;20.46;66.17;100071.86;103122;1305;107428;-75
2022/10/27 11:43:30;;;;;;;13.10;4.00;;;;;;;20.48;65.72;100070.99;103151;1302;99268;-77